Time;durP1;ratioP1;P1;durP2;ratioP2;P2;SDS_P1;SDS_P2;PMS_P1;PMS_P2;Temp;Humidity;BMP_temperature;BMP_pressure;BME280_temperature;BME280_humidity;BME280_pressure;Samples;Min_cycle;Max_cycle;Signal;HPM_P1;HPM_P2
2022/10/18 00:00:13;;;;;;;23.10;16.27;;;;;;;11.19;83.22;101456.02;1720952;83;21132;-76
2022/10/18 00:02:42;;;;;;;24.67;15.90;;;;;;;11.16;83.28;101453.45;1721057;83;21031;-74
2022/10/18 00:05:09;;;;;;;22.27;17.42;;;;;;;11.14;83.46;101447.37;1721048;83;21078;-74
2022/10/18 00:07:36;;;;;;;21.65;16.80;;;;;;;11.12;83.79;101448.73;1721151;83;21553;-75
2022/10/18 00:10:04;;;;;;;23.10;15.98;;;;;;;11.15;83.85;101458.30;1721249;83;22067;-75
2022/10/18 00:12:35;;;;;;;21.00;15.67;;;;;;;11.13;83.69;101444.34;1721035;83;21142;-74
2022/10/18 00:15:03;;;;;;;;;;;;;;;11.08;83.37;101455.39;1723568;83;21003;-74
2022/10/18 00:17:30;;;;;;;21.83;15.47;;;;;;;11.06;84.19;101451.96;1721292;83;20180;-75
2022/10/18 00:19:57;;;;;;;20.03;16.20;;;;;;;11.05;83.91;101452.38;1721125;83;20919;-74
2022/10/18 00:22:24;;;;;;;22.30;16.63;;;;;;;11.03;84.04;101460.77;1708272;84;21531;-75
2022/10/18 00:24:51;;;;;;;24.55;17.07;;;;;;;11.04;84.45;101443.25;1721089;83;21930;-77
2022/10/18 00:27:19;;;;;;;22.33;15.90;;;;;;;11.06;84.83;101456.76;1708204;84;21472;-74
2022/10/18 00:29:49;;;;;;;19.67;15.97;;;;;;;11.09;84.89;101450.13;1721086;83;20976;-76
2022/10/18 00:32:16;;;;;;;19.37;15.95;;;;;;;11.09;84.75;101457.99;1721253;83;21500;-75
2022/10/18 00:34:43;;;;;;;24.85;16.55;;;;;;;11.08;84.81;101450.14;1708340;84;21015;-76
2022/10/18 00:37:10;;;;;;;26.40;17.50;;;;;;;11.09;85.19;101452.75;1721394;83;21607;-75
2022/10/18 00:39:37;;;;;;;22.37;16.42;;;;;;;11.13;85.36;101457.47;1721078;83;21539;-74
2022/10/18 00:42:04;;;;;;;20.47;15.27;;;;;;;11.13;85.25;101457.02;1721418;83;21014;-75
2022/10/18 00:44:37;;;;;;;20.25;16.10;;;;;;;11.11;85.09;101448.34;1721168;83;20993;-74
2022/10/18 00:47:08;;;;;;;19.10;15.90;;;;;;;11.12;85.34;101448.73;1708476;84;21043;-74
2022/10/18 00:49:42;;;;;;;20.12;15.28;;;;;;;11.14;85.23;101450.89;1721314;83;21159;-75
2022/10/18 00:52:20;;;;;;;19.97;16.10;;;;;;;11.10;85.10;101453.60;1721100;83;21028;-74
2022/10/18 00:54:48;;;;;;;22.80;15.75;;;;;;;11.10;85.18;101456.23;1708413;84;21025;-76
2022/10/18 00:57:16;;;;;;;21.10;15.47;;;;;;;11.07;85.03;101452.37;1721085;83;21058;-75
2022/10/18 00:59:44;;;;;;;20.05;15.05;;;;;;;11.05;85.05;101454.16;1721357;83;21030;-74
2022/10/18 01:02:14;;;;;;;21.50;15.68;;;;;;;11.01;84.81;101445.95;1721476;83;21117;-74
2022/10/18 01:04:41;;;;;;;23.13;15.70;;;;;;;11.01;85.43;101453.81;1708440;84;21095;-74
2022/10/18 01:07:47;;;;;;;19.07;14.90;;;;;;;11.00;85.34;101451.65;1721200;83;21285;-75
2022/10/18 01:10:23;;;;;;;18.75;14.87;;;;;;;10.97;85.23;101448.20;1721117;83;21030;-76
2022/10/18 01:13:35;;;;;;;18.10;14.97;;;;;;;10.96;85.61;101434.69;1701357;84;21032;-74
2022/10/18 01:16:33;;;;;;;20.57;16.00;;;;;;;10.93;85.67;101448.28;1697477;84;21157;-74
2022/10/18 01:19:39;;;;;;;19.80;14.45;;;;;;;10.91;85.75;101443.96;1687517;84;21033;-74
2022/10/18 01:22:29;;;;;;;20.47;15.10;;;;;;;10.85;85.46;101444.09;1697479;84;21481;-75
2022/10/18 01:25:33;;;;;;;19.32;14.30;;;;;;;10.81;85.55;101448.55;1697230;84;28152;-75
2022/10/18 01:28:08;;;;;;;18.67;14.37;;;;;;;10.80;85.46;101451.20;1697094;83;21008;-74
2022/10/18 01:30:44;;;;;;;19.00;15.43;;;;;;;10.70;85.18;101445.30;1697461;84;22098;-76
2022/10/18 01:33:30;;;;;;;19.60;15.27;;;;;;;10.68;85.47;101451.02;1697303;84;21021;-75
2022/10/18 01:36:09;;;;;;;20.17;15.17;;;;;;;10.63;85.36;101447.62;1696761;84;22068;-74
2022/10/18 01:38:38;;;;;;;18.70;15.33;;;;;;;10.59;85.53;101445.52;1697120;84;21536;-74
2022/10/18 01:41:07;;;;;;;21.40;17.27;;;;;;;10.61;86.18;101442.39;1697705;84;21019;-77
2022/10/18 01:43:38;;;;;;;25.23;16.62;;;;;;;10.65;86.72;101446.70;1697794;84;21469;-76
2022/10/18 01:46:07;;;;;;;21.02;16.27;;;;;;;10.65;86.63;101446.70;1697771;84;21014;-74
2022/10/18 01:48:39;;;;;;;23.52;17.30;;;;;;;10.67;86.71;101444.05;1697903;84;21026;-74
2022/10/18 01:51:06;;;;;;;23.10;17.40;;;;;;;10.68;87.03;101453.64;1697408;84;20950;-75
2022/10/18 01:53:34;;;;;;;21.97;16.20;;;;;;;10.70;87.10;101457.09;1697594;84;21102;-76
2022/10/18 01:56:06;;;;;;;22.70;16.57;;;;;;;10.68;86.65;101453.18;1697397;84;21310;-75
2022/10/18 01:58:48;;;;;;;20.97;16.07;;;;;;;10.70;87.45;101456.64;1696516;84;21022;-74
2022/10/18 02:01:38;;;;;;;18.83;15.70;;;;;;;10.74;87.12;101450.87;1697299;84;21501;-76
2022/10/18 02:04:14;;;;;;;21.43;15.57;;;;;;;10.67;86.47;101450.61;1697475;84;21069;-76
2022/10/18 02:06:44;;;;;;;22.77;15.10;;;;;;;10.63;86.71;101442.38;1695982;84;21026;-74
2022/10/18 02:09:16;;;;;;;18.25;14.43;;;;;;;10.60;86.34;101449.85;1697541;84;21123;-76
2022/10/18 02:11:45;;;;;;;19.53;15.00;;;;;;;10.56;86.21;101455.17;1697662;83;21034;-75
2022/10/18 02:14:16;;;;;;;17.23;14.03;;;;;;;10.49;86.20;101451.83;1721067;83;21402;-75
2022/10/18 02:16:53;;;;;;;17.37;14.40;;;;;;;10.45;86.17;101448.41;1690810;84;21523;-76
2022/10/18 02:19:41;;;;;;;17.77;14.43;;;;;;;10.42;86.34;101449.78;1681861;84;21053;-75
2022/10/18 02:22:11;;;;;;;18.03;13.90;;;;;;;10.39;86.37;101452.47;1678649;84;21154;-75
2022/10/18 02:24:41;;;;;;;;;;;;;;;10.37;86.31;101454.25;1684227;84;21046;-74
2022/10/18 02:27:09;;;;;;;17.47;13.77;;;;;;;10.33;86.36;101458.25;1682098;84;20180;-75
2022/10/18 02:29:36;;;;;;;19.17;14.70;;;;;;;10.26;86.25;101456.18;1681774;84;21082;-74
2022/10/18 02:32:25;;;;;;;20.40;14.33;;;;;;;10.24;86.33;101455.34;1681668;84;21085;-76
2022/10/18 02:35:19;;;;;;;19.23;14.60;;;;;;;10.21;86.35;101463.25;1682026;84;21108;-75
2022/10/18 02:37:48;;;;;;;17.73;13.73;;;;;;;10.19;86.78;101454.55;1682009;84;21090;-75
2022/10/18 02:40:17;;;;;;;18.45;14.43;;;;;;;10.15;86.47;101456.83;1681814;84;21049;-75
2022/10/18 02:42:51;;;;;;;18.70;14.17;;;;;;;10.11;86.53;101452.52;1681998;84;21041;-75
2022/10/18 02:45:18;;;;;;;20.73;14.80;;;;;;;10.09;86.43;101458.22;1681980;84;21503;-76
2022/10/18 02:47:45;;;;;;;22.20;14.73;;;;;;;10.05;86.70;101458.73;1681695;84;21966;-74
2022/10/18 02:50:12;;;;;;;18.47;14.87;;;;;;;10.07;87.11;101458.27;1681840;84;21025;-74
2022/10/18 02:52:39;;;;;;;19.13;13.60;;;;;;;10.09;87.14;101456.91;1682032;84;21029;-75
2022/10/18 02:55:08;;;;;;;21.50;15.00;;;;;;;10.09;87.01;101454.30;1681703;84;21523;-75
2022/10/18 02:57:36;;;;;;;20.93;16.33;;;;;;;10.08;87.04;101455.20;1681813;84;21514;-74
2022/10/18 03:00:05;;;;;;;17.70;15.27;;;;;;;10.08;87.43;101459.12;1682053;85;22146;-75
2022/10/18 03:02:33;;;;;;;23.12;16.95;;;;;;;10.09;87.44;101463.05;1681644;84;21544;-74
2022/10/18 03:05:00;;;;;;;18.23;15.00;;;;;;;10.07;87.26;101462.20;1681712;84;21045;-75
2022/10/18 03:07:27;;;;;;;21.67;15.43;;;;;;;10.07;87.47;101459.58;1681892;84;21061;-75
2022/10/18 03:09:54;;;;;;;20.57;15.13;;;;;;;10.04;87.26;101460.49;1681866;84;21594;-75
2022/10/18 03:12:21;;;;;;;17.27;13.97;;;;;;;10.01;87.08;101459.24;1681697;84;21161;-75
2022/10/18 03:14:48;;;;;;;19.93;15.23;;;;;;;10.01;87.23;101459.70;1681767;84;21090;-77
2022/10/18 03:17:15;;;;;;;19.80;14.70;;;;;;;9.98;87.25;101461.06;1681749;84;21436;-75
2022/10/18 03:19:42;;;;;;;18.37;14.20;;;;;;;9.94;87.12;101459.37;1681761;84;21038;-75
2022/10/18 03:22:09;;;;;;;20.07;13.90;;;;;;;9.91;87.04;101462.91;1681767;84;21037;-76
2022/10/18 03:24:36;;;;;;;19.90;14.50;;;;;;;9.88;87.14;101462.96;1681679;84;21276;-74
2022/10/18 03:27:03;;;;;;;20.30;14.27;;;;;;;9.87;87.22;101465.17;1681877;84;21458;-76
2022/10/18 03:29:30;;;;;;;18.77;14.17;;;;;;;9.83;87.33;101460.41;1681749;84;21049;-74
2022/10/18 03:31:57;;;;;;;22.30;15.57;;;;;;;9.82;87.16;101465.69;1682081;84;21067;-74
2022/10/18 03:34:25;;;;;;;17.90;14.50;;;;;;;9.78;87.43;101464.89;1681716;84;21053;-75
2022/10/18 03:36:53;;;;;;;20.37;15.00;;;;;;;9.78;87.49;101471.43;1682244;84;21091;-74
2022/10/18 03:39:21;;;;;;;23.90;16.73;;;;;;;9.77;87.61;101467.52;1681788;84;21045;-75
2022/10/18 03:41:47;;;;;;;19.87;15.60;;;;;;;9.75;87.61;101470.14;1682157;84;21053;-74
2022/10/18 03:44:14;;;;;;;19.83;15.53;;;;;;;9.73;87.48;101473.70;1681904;84;21032;-75
2022/10/18 03:46:41;;;;;;;25.60;17.23;;;;;;;9.70;87.55;101473.73;1682063;84;21371;-74
2022/10/18 03:49:09;;;;;;;24.27;17.40;;;;;;;9.72;88.25;101476.75;1681853;84;21944;-74
2022/10/18 03:51:36;;;;;;;24.47;17.40;;;;;;;9.76;88.59;101475.82;1681959;84;20969;-74
2022/10/18 03:54:03;;;;;;;22.40;16.13;;;;;;;9.79;88.72;101476.22;1681881;84;21611;-75
2022/10/18 03:56:31;;;;;;;22.27;17.40;;;;;;;9.81;88.78;101474.45;1682016;84;21031;-76
2022/10/18 03:58:58;;;;;;;22.73;16.57;;;;;;;9.80;88.29;101468.77;1681929;84;21023;-74
2022/10/18 04:01:25;;;;;;;25.17;17.37;;;;;;;;;;1682024;84;21963;-76
2022/10/18 04:03:52;;;;;;;19.77;16.17;;;;;;;9.71;87.91;101479.41;1681808;84;21038;-75
2022/10/18 04:06:19;;;;;;;20.13;16.10;;;;;;;9.68;87.92;101479.45;1681903;84;21046;-75
2022/10/18 04:08:46;;;;;;;22.43;16.00;;;;;;;9.63;87.88;101478.66;1681780;84;20977;-75
2022/10/18 04:11:14;;;;;;;19.80;15.23;;;;;;;9.60;87.80;101478.27;1681837;84;21041;-75
2022/10/18 04:13:41;;;;;;;21.00;15.40;;;;;;;9.58;87.91;101477.41;1681739;84;21144;-74
2022/10/18 04:16:08;;;;;;;22.13;15.07;;;;;;;9.56;87.98;101481.80;1681828;84;21041;-75
2022/10/18 04:18:35;;;;;;;19.17;15.97;;;;;;;9.53;87.91;101475.30;1681876;84;20887;-75
2022/10/18 04:21:02;;;;;;;24.90;17.37;;;;;;;9.51;88.18;101480.58;1681920;84;21045;-74
2022/10/18 04:23:29;;;;;;;21.63;16.33;;;;;;;9.56;89.01;101483.11;1682171;84;21034;-74
2022/10/18 04:25:56;;;;;;;20.93;16.87;;;;;;;9.55;88.79;101480.08;1681737;84;21100;-74
2022/10/18 04:28:24;;;;;;;21.57;15.83;;;;;;;9.56;88.99;101484.00;1682050;84;21531;-75
2022/10/18 04:30:52;;;;;;;19.10;15.93;;;;;;;9.57;88.91;101477.86;1681791;84;20994;-75
2022/10/18 04:33:20;;;;;;;22.53;16.47;;;;;;;9.56;89.00;101470.91;1682038;84;21623;-76
2022/10/18 04:35:51;;;;;;;23.90;16.07;;;;;;;9.59;89.25;101474.78;1681953;84;21608;-75
2022/10/18 04:38:19;;;;;;;21.10;16.40;;;;;;;9.61;89.62;101474.75;1682067;84;21094;-74
2022/10/18 04:40:46;;;;;;;22.60;16.23;;;;;;;9.64;89.29;101477.31;1681847;84;21544;-74
2022/10/18 04:43:13;;;;;;;18.47;15.77;;;;;;;9.66;89.41;101481.23;1681741;84;21070;-76
2022/10/18 04:45:41;;;;;;;22.73;16.23;;;;;;;9.68;89.90;101478.15;1681790;84;21037;-75
2022/10/18 04:48:08;;;;;;;22.17;15.80;;;;;;;9.71;89.80;101482.02;1682075;84;21055;-75
2022/10/18 04:50:35;;;;;;;19.63;15.63;;;;;;;9.73;89.77;101480.25;1681886;84;21107;-74
2022/10/18 04:53:04;;;;;;;21.73;15.37;;;;;;;9.76;89.96;101480.20;1681919;84;21026;-74
2022/10/18 04:55:31;;;;;;;21.80;14.80;;;;;;;9.80;89.91;101481.41;1681893;84;21058;-77
2022/10/18 04:57:58;;;;;;;20.57;14.80;;;;;;;9.80;89.65;101477.48;1682070;84;21045;-74
2022/10/18 05:00:25;;;;;;;20.70;16.60;;;;;;;9.82;89.82;101477.02;1681869;84;21074;-75
2022/10/18 05:02:56;;;;;;;22.43;16.50;;;;;;;9.86;90.05;101480.89;1682111;84;21110;-75
2022/10/18 05:05:24;;;;;;;22.90;16.07;;;;;;;9.89;90.32;101473.84;1681675;84;21775;-74
2022/10/18 05:07:51;;;;;;;21.80;17.17;;;;;;;9.97;90.52;101475.03;1681812;84;20903;-75
2022/10/18 05:10:18;;;;;;;23.83;16.80;;;;;;;10.00;90.50;101470.63;1682041;84;21053;-76
2022/10/18 05:12:45;;;;;;;20.10;16.07;;;;;;;10.02;90.62;101466.20;1681749;84;21070;-74
2022/10/18 05:15:12;;;;;;;21.03;17.03;;;;;;;10.06;90.66;101467.03;1681807;84;22134;-74
2022/10/18 05:17:39;;;;;;;22.80;17.67;;;;;;;10.11;90.75;101466.47;1681763;84;21006;-74
2022/10/18 05:20:07;;;;;;;22.30;17.27;;;;;;;10.14;90.59;101469.48;1682143;84;21029;-74
2022/10/18 05:22:34;;;;;;;23.30;16.10;;;;;;;10.15;90.69;101464.23;1681807;84;21086;-77
2022/10/18 05:25:02;;;;;;;23.90;17.23;;;;;;;10.16;90.44;101459.41;1682050;84;21614;-74
2022/10/18 05:27:29;;;;;;;22.43;15.77;;;;;;;10.16;90.47;101459.85;1681783;84;21244;-74
2022/10/18 05:29:56;;;;;;;20.20;16.40;;;;;;;10.17;90.56;101456.33;1682063;84;21089;-74
2022/10/18 05:32:23;;;;;;;21.70;16.80;;;;;;;10.19;90.64;101459.34;1681940;84;21112;-74
2022/10/18 05:34:50;;;;;;;22.90;16.97;;;;;;;10.22;90.74;101463.66;1680741;84;21042;-74
2022/10/18 05:37:17;;;;;;;20.80;17.10;;;;;;;10.25;90.93;101468.84;1693615;83;21059;-72
2022/10/18 05:39:44;;;;;;;22.20;16.93;;;;;;;10.27;90.90;101460.09;1694184;83;21861;-71
2022/10/18 05:42:11;;;;;;;21.13;17.60;;;;;;;10.30;90.96;101467.03;1693906;83;21040;-71
2022/10/18 05:44:38;;;;;;;23.13;17.97;;;;;;;10.34;91.14;101463.94;1694238;83;21082;-75
2022/10/18 05:47:05;;;;;;;21.90;17.13;;;;;;;10.37;91.22;101457.32;1693903;83;21067;-73
2022/10/18 05:49:32;;;;;;;22.03;17.47;;;;;;;10.42;91.52;101456.76;1694541;83;21067;-72
2022/10/18 05:51:59;;;;;;;25.07;18.20;;;;;;;10.48;91.47;101457.97;1664413;85;21095;-76
2022/10/18 05:54:26;;;;;;;23.43;18.13;;;;;;;10.54;91.56;101455.22;1694268;83;21585;-76
2022/10/18 05:56:53;;;;;;;23.53;18.67;;;;;;;10.59;91.53;101453.83;1694041;83;21028;-76
2022/10/18 05:59:19;;;;;;;23.73;18.00;;;;;;;10.64;91.56;101454.58;1694216;83;21068;-75
2022/10/18 06:01:47;;;;;;;21.57;17.73;;;;;;;10.69;91.56;101462.77;1694066;83;21039;-76
2022/10/18 06:04:14;;;;;;;21.17;16.60;;;;;;;10.76;91.61;101465.28;1694243;83;21095;-73
2022/10/18 06:06:41;;;;;;;22.27;17.57;;;;;;;10.79;91.34;101471.31;1693975;83;20984;-72
2022/10/18 06:09:08;;;;;;;22.80;17.62;;;;;;;10.81;91.35;101472.58;1674947;84;21046;-73
2022/10/18 06:11:35;;;;;;;25.12;19.00;;;;;;;10.85;91.39;101472.95;1693901;83;21383;-72
2022/10/18 06:14:04;;;;;;;23.32;16.93;;;;;;;10.89;91.40;101474.59;1693558;83;21568;-73
2022/10/18 06:16:31;;;;;;;22.10;17.27;;;;;;;10.90;91.17;101476.34;1693969;83;21584;-73
2022/10/18 06:18:58;;;;;;;21.35;16.23;;;;;;;10.90;91.18;101483.76;1693930;83;21059;-73
2022/10/18 06:21:26;;;;;;;19.90;16.50;;;;;;;10.91;91.22;101479.37;1694149;83;21379;-72
2022/10/18 06:23:58;;;;;;;19.62;17.02;;;;;;;10.91;91.23;101474.98;1694048;83;21046;-74
2022/10/18 06:26:27;;;;;;;24.65;18.25;;;;;;;10.94;91.30;101477.98;1694188;83;21394;-72
2022/10/18 06:28:54;;;;;;;23.42;17.73;;;;;;;10.97;91.48;101480.55;1693446;83;21099;-72
2022/10/18 06:31:21;;;;;;;27.75;19.60;;;;;;;11.04;91.67;101479.53;1691950;83;21596;-73
2022/10/18 06:33:48;;;;;;;25.63;20.20;;;;;;;11.11;91.88;101483.76;1693907;83;21059;-72
2022/10/18 06:36:20;;;;;;;25.23;19.23;;;;;;;11.21;92.02;101485.72;1692781;83;21606;-73
2022/10/18 06:38:49;;;;;;;25.93;18.73;;;;;;;11.26;91.85;101482.55;1693256;83;21063;-73
2022/10/18 06:41:18;;;;;;;25.23;18.65;;;;;;;11.33;91.90;101492.44;1693376;83;21136;-73
2022/10/18 06:43:56;;;;;;;24.60;19.45;;;;;;;11.37;91.69;101488.41;1693423;83;21063;-73
2022/10/18 06:46:23;;;;;;;24.82;19.37;;;;;;;11.43;91.63;101487.86;1693990;83;21079;-73
2022/10/18 06:48:50;;;;;;;25.57;19.80;;;;;;;11.46;91.64;101491.72;1693411;83;21576;-73
2022/10/18 06:51:17;;;;;;;24.77;19.85;;;;;;;11.50;91.68;101488.11;1693153;83;21047;-73
2022/10/18 06:53:44;;;;;;;25.27;19.77;;;;;;;11.56;91.67;101490.16;1693247;83;21152;-73
2022/10/18 06:56:12;;;;;;;24.82;19.50;;;;;;;11.62;91.72;101486.53;1694134;83;22060;-73
2022/10/18 06:58:40;;;;;;;23.70;19.55;;;;;;;11.70;91.83;101490.29;1692419;83;21661;-73
2022/10/18 07:01:14;;;;;;;24.18;20.23;;;;;;;11.75;91.68;101483.13;1692672;83;21044;-73
2022/10/18 07:03:41;;;;;;;28.60;19.77;;;;;;;11.80;91.68;101490.45;1693391;83;21052;-73
2022/10/18 07:06:11;;;;;;;24.30;20.10;;;;;;;11.90;91.66;101499.02;1692650;83;22323;-73
2022/10/18 07:08:38;;;;;;;24.23;19.35;;;;;;;11.99;91.77;101500.09;1692814;83;21496;-73
2022/10/18 07:11:09;;;;;;;24.95;18.98;;;;;;;12.11;91.78;101503.73;1692828;83;21525;-72
2022/10/18 07:13:37;;;;;;;21.80;19.37;;;;;;;12.25;91.85;101506.01;1692502;83;21104;-72
2022/10/18 07:16:11;;;;;;;26.25;20.48;;;;;;;12.39;91.90;101509.59;1687002;84;21717;-74
2022/10/18 07:18:41;;;;;;;23.47;19.20;;;;;;;12.52;91.85;101512.73;1657660;85;21092;-74
2022/10/18 07:21:12;;;;;;;24.32;18.73;;;;;;;12.64;91.81;101510.63;1657139;86;21051;-73
2022/10/18 07:23:42;;;;;;;22.87;18.23;;;;;;;12.79;91.81;101505.38;1657109;86;21070;-73
2022/10/18 07:26:23;;;;;;;24.72;18.30;;;;;;;12.94;91.73;101505.38;1688060;84;21072;-74
2022/10/18 07:28:54;;;;;;;27.07;18.87;;;;;;;13.09;91.74;101511.98;1687652;84;21079;-74
2022/10/18 07:31:22;;;;;;;27.10;18.92;;;;;;;13.24;91.71;101508.88;1687988;84;21186;-74
2022/10/18 07:33:49;;;;;;;24.00;18.37;;;;;;;13.39;91.64;101509.77;1687733;84;21109;-73
2022/10/18 07:36:16;;;;;;;23.18;18.30;;;;;;;13.47;91.33;101505.58;1687973;84;21553;-75
2022/10/18 07:38:43;;;;;;;23.27;18.80;;;;;;;13.59;91.29;101505.64;1687808;84;21060;-74
2022/10/18 07:41:12;;;;;;;21.57;18.23;;;;;;;13.71;91.27;101506.55;1688046;84;21652;-74
2022/10/18 07:43:46;;;;;;;23.05;17.85;;;;;;;13.82;91.29;101502.25;1688083;84;21067;-74
2022/10/18 07:46:14;;;;;;;29.87;19.42;;;;;;;13.95;91.43;101500.08;1687865;84;21100;-73
2022/10/18 07:48:42;;;;;;;26.33;19.23;;;;;;;14.12;91.63;101491.60;1687880;84;21026;-73
2022/10/18 07:51:10;;;;;;;25.57;19.67;;;;;;;14.28;91.64;101491.02;1687818;84;21531;-73
2022/10/18 07:53:37;;;;;;;24.12;18.70;;;;;;;14.43;91.54;101492.23;1688073;84;21528;-73
2022/10/18 07:56:10;;;;;;;24.63;19.10;;;;;;;14.56;91.35;101483.94;1687732;84;21151;-73
2022/10/18 07:58:37;;;;;;;23.95;18.98;;;;;;;14.67;91.07;101485.72;1687915;84;21562;-73
2022/10/18 08:01:06;;;;;;;25.20;19.00;;;;;;;14.80;90.92;101483.47;1687806;84;21107;-74
2022/10/18 08:03:34;;;;;;;23.70;18.95;;;;;;;14.94;90.74;101487.80;1688318;84;21067;-73
2022/10/18 08:06:03;;;;;;;20.25;18.02;;;;;;;15.13;90.74;101489.25;1687780;84;22214;-75
2022/10/18 08:08:32;;;;;;;23.22;17.42;;;;;;;15.29;90.44;101484.23;1687909;84;21106;-73
2022/10/18 08:11:05;;;;;;;19.90;17.50;;;;;;;15.42;90.04;101480.19;1687813;84;20976;-74
2022/10/18 08:13:32;;;;;;;18.65;16.70;;;;;;;15.58;90.11;101487.91;1688031;84;21504;-73
2022/10/18 08:16:02;;;;;;;19.75;17.55;;;;;;;15.74;89.60;101484.65;1687624;84;21065;-73
2022/10/18 08:18:30;;;;;;;21.12;17.42;;;;;;;15.89;89.50;101474.77;1687733;84;21123;-73
2022/10/18 08:21:03;;;;;;;20.08;16.93;;;;;;;16.04;89.16;101475.42;1687658;84;21131;-74
2022/10/18 08:23:30;;;;;;;20.82;16.95;;;;;;;16.14;88.61;101467.97;1687694;84;21131;-73
2022/10/18 08:26:04;;;;;;;21.75;17.40;;;;;;;16.24;88.52;101466.66;1687091;84;21067;-73
2022/10/18 08:28:31;;;;;;;23.35;16.20;;;;;;;16.31;88.40;101463.27;1663687;85;21062;-73
2022/10/18 08:31:04;;;;;;;19.42;16.20;;;;;;;16.50;88.28;101465.96;1687572;84;21516;-73
2022/10/18 08:33:33;;;;;;;20.35;16.97;;;;;;;16.63;88.22;101459.66;1663973;85;21140;-73
2022/10/18 08:36:06;;;;;;;18.55;16.62;;;;;;;16.75;87.92;101458.23;1687585;84;21060;-73
2022/10/18 08:38:37;;;;;;;19.00;16.73;;;;;;;16.81;87.26;101456.66;1687674;84;21338;-72
2022/10/18 08:41:49;;;;;;;20.92;17.25;;;;;;;16.87;87.11;101441.33;1687512;84;21556;-73
2022/10/18 08:44:24;;;;;;;22.02;16.75;;;;;;;16.90;86.75;101441.66;1664362;85;21051;-74
2022/10/18 08:47:05;;;;;;;26.37;17.92;;;;;;;16.90;86.49;101433.70;1689649;84;21201;-75
2022/10/18 08:49:59;;;;;;;21.97;17.17;;;;;;;16.88;86.31;101435.12;1660236;85;21019;-75
2022/10/18 08:52:53;;;;;;;20.10;17.60;;;;;;;16.88;86.28;101429.83;1660937;85;21043;-76
2022/10/18 08:55:39;;;;;;;23.32;20.70;;;;;;;16.87;86.29;101432.06;1661192;85;20966;-76
2022/10/18 08:58:21;;;;;;;23.45;18.73;;;;;;;16.90;86.45;101432.39;1660929;85;21042;-74
2022/10/18 09:01:30;;;;;;;21.27;16.77;;;;;;;16.91;86.40;101429.68;1661301;85;21792;-75
2022/10/18 09:04:43;;;;;;;20.72;16.82;;;;;;;16.98;86.48;101428.91;1666119;85;21091;-75
2022/10/18 09:07:30;;;;;;;30.88;27.62;;;;;;;17.11;86.48;101430.52;1678700;84;21605;-75
2022/10/18 09:10:08;;;;;;;33.18;29.77;;;;;;;17.25;86.48;101419.26;1672673;84;21014;-75
2022/10/18 09:12:56;;;;;;;27.98;22.70;;;;;;;17.42;86.45;101417.10;1674611;84;21006;-75
2022/10/18 09:15:46;;;;;;;23.57;21.07;;;;;;;17.63;86.21;101416.52;1657582;84;21866;-75
2022/10/18 09:18:49;;;;;;;29.77;21.17;;;;;;;17.78;85.79;101412.63;1652278;85;21521;-75
2022/10/18 09:21:36;;;;;;;30.52;26.85;;;;;;;17.92;85.63;101410.59;1640292;86;21508;-75
2022/10/18 09:24:14;;;;;;;23.85;18.67;;;;;;;18.15;85.29;101404.55;1652424;85;21544;-74
2022/10/18 09:26:47;;;;;;;36.35;31.10;;;;;;;18.32;84.98;101403.21;1624400;87;21032;-74
2022/10/18 09:29:47;;;;;;;33.88;30.27;;;;;;;18.46;84.38;101398.01;1640878;86;21624;-79
2022/10/18 09:32:42;;;;;;;;;;;;;;;18.52;83.85;101389.33;1654864;85;21041;-76
2022/10/18 09:35:32;;;;;;;28.32;23.70;;;;;;;18.56;83.20;101390.86;1640639;86;20311;-76
2022/10/18 09:38:05;;;;;;;;;;;;;;;18.52;82.97;101390.66;1640645;85;21472;-76
2022/10/18 09:40:36;;;;;;;30.12;24.32;;;;;;;18.48;82.71;101388.63;1640389;86;20518;-74
2022/10/18 09:43:21;;;;;;;21.75;18.48;;;;;;;18.51;82.95;101385.80;1652312;85;21155;-75
2022/10/18 09:45:51;;;;;;;21.97;16.48;;;;;;;18.60;83.11;101386.64;1639775;86;21051;-73
2022/10/18 09:48:35;;;;;;;21.77;19.48;;;;;;;18.80;83.05;101389.55;1652455;85;21053;-77
2022/10/18 09:51:20;;;;;;;20.25;16.57;;;;;;;19.04;83.08;101388.65;1652744;85;20954;-75
2022/10/18 09:54:12;;;;;;;35.75;30.27;;;;;;;19.29;82.73;101378.80;1607395;88;21050;-75
2022/10/18 09:56:56;;;;;;;38.58;30.48;;;;;;;19.39;82.04;101370.64;1652453;85;21860;-74
2022/10/18 09:59:42;;;;;;;27.52;22.17;;;;;;;19.43;81.53;101365.14;1640078;86;21492;-74
2022/10/18 10:02:17;;;;;;;120.60;29.40;;;;;;;19.48;81.34;101364.41;1652681;85;21387;-74
2022/10/18 10:04:44;;;;;;;89.45;66.72;;;;;;;19.52;81.27;101373.45;1640301;86;21042;-74
2022/10/18 10:07:19;;;;;;;24.45;17.73;;;;;;;19.53;80.95;101371.64;1652611;85;21555;-75
2022/10/18 10:09:59;;;;;;;20.40;16.00;;;;;;;19.52;80.69;101362.81;1643409;86;21125;-75
2022/10/18 10:12:38;;;;;;;32.05;26.65;;;;;;;19.59;80.90;101361.52;1604045;88;21078;-74
2022/10/18 10:15:26;;;;;;;21.23;18.15;;;;;;;19.66;80.49;101362.50;1648395;84;21305;-74
2022/10/18 10:18:07;;;;;;;42.17;33.80;;;;;;;19.56;80.10;101366.98;1677197;84;21054;-74
2022/10/18 10:20:53;;;;;;;32.63;25.97;;;;;;;19.51;80.51;101369.09;1676689;84;21050;-76
2022/10/18 10:23:40;;;;;;;22.85;18.42;;;;;;;19.52;80.54;101360.63;1677158;84;21976;-73
2022/10/18 10:26:24;;;;;;;41.95;33.60;;;;;;;19.52;80.66;101357.50;1666827;84;21028;-74
2022/10/18 10:28:51;;;;;;;38.08;24.92;;;;;;;19.50;80.22;101353.21;1677171;84;21576;-74
2022/10/18 10:31:35;;;;;;;26.55;21.85;;;;;;;19.40;79.69;101359.56;1677287;84;21038;-76
2022/10/18 10:34:16;;;;;;;39.08;29.60;;;;;;;19.32;79.64;101355.17;1677146;84;21037;-75
2022/10/18 10:36:53;;;;;;;33.02;24.60;;;;;;;19.23;79.67;101351.22;1681861;84;21135;-76
2022/10/18 10:39:23;;;;;;;30.23;23.62;;;;;;;19.13;79.66;101347.41;1681839;84;20962;-76
2022/10/18 10:41:55;;;;;;;;;;;;;;;19.04;79.79;101354.11;1684361;84;21037;-76
2022/10/18 10:44:26;;;;;;;41.00;30.35;;;;;;;18.97;79.85;101348.74;1681879;84;20176;-73
2022/10/18 10:46:54;;;;;;;27.00;22.55;;;;;;;18.97;80.39;101339.92;1681833;84;21124;-74
2022/10/18 10:49:26;;;;;;;29.52;23.85;;;;;;;19.02;80.35;101330.74;1682065;84;21257;-74
2022/10/18 10:52:00;;;;;;;25.80;21.77;;;;;;;19.03;80.25;101320.97;1679533;84;21073;-73
2022/10/18 10:54:34;;;;;;;25.72;21.95;;;;;;;18.98;80.17;101323.88;1682047;84;21046;-74
2022/10/18 10:57:13;;;;;;;36.58;29.65;;;;;;;18.94;80.20;101326.34;1681757;84;21026;-76
2022/10/18 10:59:52;;;;;;;40.23;30.57;;;;;;;18.90;80.26;101316.82;1680912;84;21501;-75
2022/10/18 11:02:32;;;;;;;22.05;18.05;;;;;;;18.88;80.35;101315.59;1682252;84;21170;-75
2022/10/18 11:05:30;;;;;;;24.02;18.90;;;;;;;18.90;80.39;101322.13;1682155;84;21073;-76
2022/10/18 11:08:04;;;;;;;34.30;25.02;;;;;;;18.86;80.28;101310.84;1681904;84;21018;-77
2022/10/18 11:10:36;;;;;;;36.95;30.08;;;;;;;18.84;80.46;101304.75;1681996;84;21057;-74
2022/10/18 11:13:28;;;;;;;36.70;28.10;;;;;;;18.82;80.29;101300.50;1681923;84;21010;-76
2022/10/18 11:16:05;;;;;;;31.85;25.20;;;;;;;18.74;80.24;101292.95;1680924;84;21931;-77
2022/10/18 11:18:39;;;;;;;36.03;26.93;;;;;;;18.68;80.37;101282.66;1679781;84;21057;-75
2022/10/18 11:21:12;;;;;;;29.45;23.95;;;;;;;18.63;80.30;101286.89;1668937;85;21026;-75
2022/10/18 11:23:42;;;;;;;22.80;17.55;;;;;;;18.58;80.39;101278.80;1692079;84;21056;-74
2022/10/18 11:26:20;;;;;;;25.00;21.25;;;;;;;18.53;80.63;101275.07;1692276;84;21059;-74
2022/10/18 11:29:36;;;;;;;30.88;24.40;;;;;;;18.49;80.83;101273.07;1679906;84;21968;-76
2022/10/18 11:32:21;;;;;;;21.27;17.05;;;;;;;18.45;80.82;101268.86;1692182;84;21554;-75
2022/10/18 11:35:15;;;;;;;29.60;23.40;;;;;;;18.43;80.86;101267.27;1679915;84;21069;-74
2022/10/18 11:38:12;;;;;;;30.85;23.65;;;;;;;18.40;81.00;101264.75;1679802;84;21081;-77